createdAt,value
2022-10-21T00:03:54.305Z,100541.00
2022-10-21T00:14:15.690Z,100533.25
2022-10-21T00:24:37.028Z,100530.63
2022-10-21T00:34:58.645Z,100503.16
2022-10-21T00:45:21.927Z,100487.81
2022-10-21T00:56:03.562Z,100482.31
2022-10-21T01:06:25.788Z,100459.16
2022-10-21T01:16:53.177Z,100457.50
2022-10-21T01:27:24.311Z,100437.28
2022-10-21T01:37:48.785Z,100428.97
2022-10-21T01:48:22.107Z,100423.22
2022-10-21T01:58:45.117Z,100417.50
2022-10-21T02:09:06.602Z,100395.03
2022-10-21T02:19:28.681Z,100382.22
2022-10-21T02:29:52.552Z,100359.72
2022-10-21T02:40:20.030Z,100346.38
2022-10-21T02:50:41.425Z,100346.31
2022-10-21T03:01:02.814Z,100338.00
2022-10-21T03:11:24.232Z,100322.78
2022-10-21T03:21:45.582Z,100326.81
2022-10-21T03:32:07.078Z,100325.66
2022-10-21T03:42:28.842Z,100320.59
2022-10-21T03:52:50.258Z,100296.09
2022-10-21T04:03:11.609Z,100302.38
2022-10-21T04:13:33.367Z,100294.44
2022-10-21T04:23:54.725Z,100298.91
2022-10-21T04:34:16.090Z,100307.13
2022-10-21T04:44:38.537Z,100291.19
2022-10-21T04:54:59.898Z,100279.16
2022-10-21T05:05:21.299Z,100260.84
2022-10-21T05:15:42.683Z,100247.31
2022-10-21T05:26:04.067Z,100243.94
2022-10-21T05:36:25.465Z,100239.34
2022-10-21T05:46:46.810Z,100230.53
2022-10-21T05:57:08.142Z,100243.75
2022-10-21T06:07:29.478Z,100243.88
2022-10-21T06:17:51.515Z,100258.91
2022-10-21T06:28:12.915Z,100255.25
2022-10-21T06:38:34.423Z,100275.88
2022-10-21T06:48:55.787Z,100274.13
2022-10-21T06:59:17.194Z,100270.00
2022-10-21T07:09:38.640Z,100269.81
2022-10-21T07:20:00.633Z,100266.47
2022-10-21T07:30:23.435Z,100275.06
2022-10-21T07:40:44.890Z,100280.78
2022-10-21T07:51:07.783Z,100276.56
2022-10-21T08:01:29.280Z,100284.09
2022-10-21T08:11:50.823Z,100283.38
2022-10-21T08:22:12.442Z,100273.84
2022-10-21T08:32:33.954Z,100276.19
2022-10-21T08:42:55.358Z,100273.25
2022-10-21T08:53:19.750Z,100280.72
2022-10-21T09:03:41.101Z,100275.78
2022-10-21T09:14:21.415Z,100264.22
2022-10-21T09:24:42.871Z,100262.53
2022-10-21T09:35:16.681Z,100249.03
2022-10-21T09:45:39.124Z,100255.44
2022-10-21T09:56:03.817Z,100269.34
2022-10-21T10:06:31.362Z,100260.44
2022-10-21T10:16:52.821Z,100255.81
2022-10-21T10:27:17.507Z,100261.44
2022-10-21T10:37:39.005Z,100260.34
2022-10-21T10:48:04.127Z,100257.88
2022-10-21T10:58:28.001Z,100252.88
2022-10-21T11:08:55.533Z,100262.28
2022-10-21T11:19:30.132Z,100259.59
2022-10-21T11:30:04.057Z,100249.31
2022-10-21T11:40:28.707Z,100249.63
2022-10-21T11:51:03.714Z,100258.25
2022-10-21T12:01:47.063Z,100250.28
2022-10-21T12:12:14.664Z,100249.00
2022-10-21T12:22:36.464Z,100243.84
2022-10-21T12:32:57.925Z,100234.59
2022-10-21T12:43:22.523Z,100223.81
2022-10-21T12:53:49.220Z,100206.38
2022-10-21T13:04:29.524Z,100222.94
2022-10-21T13:14:58.285Z,100217.00
2022-10-21T13:25:25.812Z,100233.00
2022-10-21T13:35:48.516Z,100243.56
2022-10-21T13:46:19.165Z,100252.34
2022-10-21T13:56:40.780Z,100249.56
2022-10-21T14:07:07.919Z,100256.03
2022-10-21T14:17:29.348Z,100251.69
2022-10-21T14:27:51.054Z,100242.47
2022-10-21T14:38:24.619Z,100232.56
2022-10-21T14:48:52.274Z,100235.66
2022-10-21T14:59:24.800Z,100235.94
2022-10-21T15:09:56.502Z,100253.91
2022-10-21T15:20:17.980Z,100252.25
2022-10-21T15:30:42.173Z,100259.75
2022-10-21T15:41:03.626Z,100255.72
2022-10-21T15:51:24.999Z,100269.28
2022-10-21T16:01:47.041Z,100275.81
2022-10-21T16:12:09.302Z,100278.31
2022-10-21T16:22:31.070Z,100275.66
2022-10-21T16:32:52.617Z,100280.22
2022-10-21T16:43:16.192Z,100288.06
2022-10-21T16:53:37.675Z,100299.50
2022-10-21T17:03:59.065Z,100308.84
2022-10-21T17:14:20.538Z,100306.59
2022-10-21T17:24:41.947Z,100298.84
2022-10-21T17:35:03.387Z,100302.31
2022-10-21T17:45:24.985Z,100313.69
2022-10-21T17:55:55.258Z,100325.53
2022-10-21T18:06:16.759Z,100323.34
2022-10-21T18:16:38.153Z,100340.88
2022-10-21T18:26:59.546Z,100337.41
2022-10-21T18:37:20.968Z,100339.06
2022-10-21T18:47:47.043Z,100346.25
2022-10-21T18:58:08.438Z,100343.94
2022-10-21T19:08:29.790Z,100343.78
2022-10-21T19:18:51.417Z,100348.06
2022-10-21T19:29:16.117Z,100356.06
2022-10-21T19:39:37.473Z,100358.00
2022-10-21T19:49:58.864Z,100372.00
2022-10-21T20:00:20.468Z,100377.56
2022-10-21T20:10:41.871Z,100378.41
2022-10-21T20:21:06.303Z,100382.28
2022-10-21T20:31:28.044Z,100389.72
2022-10-21T20:41:49.394Z,100400.50
2022-10-21T20:52:10.777Z,100394.56
2022-10-21T21:02:32.150Z,100391.06
2022-10-21T21:12:53.514Z,100390.56
2022-10-21T21:23:14.915Z,100404.75
2022-10-21T21:33:36.527Z,100403.44
2022-10-21T21:43:58.349Z,100402.63
2022-10-21T21:54:19.853Z,100418.31
2022-10-21T22:04:41.285Z,100424.16
2022-10-21T22:15:02.979Z,100417.00
2022-10-21T22:25:24.388Z,100410.84
2022-10-21T22:35:45.733Z,100419.16
2022-10-21T22:56:36.619Z,100405.97
2022-10-21T23:06:57.981Z,100404.69
2022-10-21T23:17:19.326Z,100402.75
2022-10-21T23:27:40.745Z,100390.50
2022-10-21T23:38:02.154Z,100404.13
2022-10-21T23:48:23.491Z,100395.84
2022-10-21T23:58:44.875Z,100406.88
